createdAt,value
2023-04-13T00:03:22.053Z,99358.13
2023-04-13T00:08:26.120Z,99369.16
2023-04-13T00:13:28.666Z,99371.19
2023-04-13T00:18:31.324Z,99370.81
2023-04-13T00:23:35.937Z,99349.41
2023-04-13T00:28:38.986Z,99371.44
2023-04-13T00:33:41.525Z,99369.81
2023-04-13T00:38:46.598Z,99371.22
2023-04-13T00:43:50.712Z,99359.16
2023-04-13T00:48:55.487Z,99354.34
2023-04-13T00:54:00.005Z,99305.28
2023-04-13T00:59:03.445Z,99352.44
2023-04-13T01:04:06.621Z,99340.69
2023-04-13T01:09:16.692Z,99345.03
2023-04-13T01:21:10.040Z,99348.22
2023-04-13T01:26:14.619Z,99333.69
2023-04-13T01:31:19.659Z,99322.41
2023-04-13T01:36:24.392Z,99332.47
2023-04-13T01:41:27.474Z,99316.91
2023-04-13T01:46:34.893Z,99320.47
2023-04-13T01:51:45.095Z,99324.41
2023-04-13T01:56:51.405Z,99330.81
2023-04-13T02:01:57.385Z,99334.38
2023-04-13T02:07:00.288Z,99337.69
2023-04-13T02:12:08.772Z,99338.94
2023-04-13T02:17:15.633Z,99335.59
2023-04-13T02:22:18.363Z,99335.84
2023-04-13T02:27:22.623Z,99331.97
2023-04-13T02:32:26.564Z,99341.56
2023-04-13T02:37:31.104Z,99341.78
2023-04-13T02:42:33.725Z,99340.81
2023-04-13T02:47:40.145Z,99340.38
2023-04-13T02:52:46.737Z,99357.84
2023-04-13T02:57:50.212Z,99355.72
2023-04-13T03:02:55.645Z,99358.09
2023-04-13T03:08:01.131Z,99341.63
2023-04-13T03:13:04.285Z,99369.47
2023-04-13T03:18:08.340Z,99371.56
2023-04-13T03:23:12.511Z,99370.88
2023-04-13T03:28:15.814Z,99374.22
2023-04-13T03:33:22.580Z,99374.47
2023-04-13T03:38:25.444Z,99383.81
2023-04-13T03:43:28.743Z,99401.81
2023-04-13T03:48:41.348Z,99403.25
2023-04-13T03:53:46.949Z,99400.88
2023-04-13T03:58:49.952Z,99413.53
2023-04-13T04:03:58.709Z,99410.09
2023-04-13T04:09:04.609Z,99417.06
2023-04-13T04:14:12.508Z,99426.50
2023-04-13T04:19:24.725Z,99430.19
2023-04-13T04:24:29.704Z,99447.91
2023-04-13T04:29:37.097Z,99410.31
2023-04-13T04:34:54.845Z,99463.69
2023-04-13T04:39:59.963Z,99470.88
2023-04-13T04:45:04.387Z,99482.63
2023-04-13T04:50:10.144Z,99487.53
2023-04-13T04:55:20.375Z,99494.22
2023-04-13T05:00:26.494Z,99505.97
2023-04-13T05:05:56.944Z,99518.09
2023-04-13T05:11:07.108Z,99523.00
2023-04-13T05:16:10.873Z,99538.94
2023-04-13T05:21:17.594Z,99527.44
2023-04-13T05:26:26.170Z,99549.84
2023-04-13T05:31:29.258Z,99564.72
2023-04-13T05:36:36.713Z,99570.91
2023-04-13T05:41:44.050Z,99588.84
2023-04-13T05:46:47.453Z,99597.34
2023-04-13T05:51:53.981Z,99595.47
2023-04-13T05:57:01.588Z,99615.72
2023-04-13T06:02:05.350Z,99622.41
2023-04-13T06:07:09.474Z,99623.94
2023-04-13T06:12:12.008Z,99628.78
2023-04-13T06:17:14.545Z,99641.47
2023-04-13T06:22:18.821Z,99652.66
2023-04-13T06:27:21.865Z,99661.44
2023-04-13T06:32:25.371Z,99667.78
2023-04-13T06:37:30.140Z,99680.63
2023-04-13T06:42:32.928Z,99687.59
2023-04-13T06:47:55.497Z,99690.47
2023-04-13T06:53:00.510Z,99702.72
2023-04-13T06:58:04.302Z,99717.50
2023-04-13T07:03:07.176Z,99726.88
2023-04-13T07:08:13.889Z,99727.00
2023-04-13T07:13:22.196Z,99716.91
2023-04-13T07:18:25.743Z,99731.56
2023-04-13T07:23:31.593Z,99733.59
2023-04-13T07:28:34.667Z,99741.00
2023-04-13T07:33:37.482Z,99737.66
2023-04-13T07:38:42.175Z,99746.34
2023-04-13T07:43:46.613Z,99768.16
2023-04-13T07:48:49.277Z,99777.16
2023-04-13T07:54:00.189Z,99769.50
2023-04-13T07:59:04.912Z,99790.50
2023-04-13T08:04:10.001Z,99801.28
2023-04-13T08:09:15.819Z,99788.31
2023-04-13T08:14:18.452Z,99818.19
2023-04-13T08:19:24.588Z,99835.00
2023-04-13T08:24:33.594Z,99809.06
2023-04-13T08:29:36.418Z,99836.69
2023-04-13T08:34:39.110Z,99859.31
2023-04-13T08:39:43.102Z,99857.81
2023-04-13T08:44:47.422Z,99856.16
2023-04-13T08:49:51.483Z,99869.22
2023-04-13T08:55:04.910Z,99874.75
2023-04-13T09:00:14.206Z,99886.41
2023-04-13T09:05:20.813Z,99888.91
2023-04-13T09:10:30.172Z,99888.78
2023-04-13T09:15:33.339Z,99793.16
2023-04-13T09:20:57.753Z,99874.69
2023-04-13T09:26:09.467Z,99873.84
2023-04-13T09:31:13.876Z,99912.94
2023-04-13T09:36:18.908Z,99916.91
2023-04-13T09:41:37.188Z,99925.78
2023-04-13T09:46:39.758Z,99935.66
2023-04-13T09:51:42.857Z,99927.31
2023-04-13T09:56:52.366Z,99939.25
2023-04-13T10:01:55.722Z,99951.13
2023-04-13T10:06:58.527Z,99953.06
2023-04-13T10:12:03.326Z,99947.47
2023-04-13T10:17:28.916Z,99961.53
2023-04-13T10:22:31.639Z,99971.41
2023-04-13T10:27:36.430Z,99955.66
2023-04-13T10:32:39.059Z,99990.66
2023-04-13T10:37:44.427Z,99988.16
2023-04-13T10:47:54.915Z,100013.03
2023-04-13T10:53:01.951Z,100012.09
2023-04-13T10:58:18.067Z,100012.81
2023-04-13T11:03:20.864Z,100017.81
2023-04-13T11:08:24.639Z,100027.50
2023-04-13T11:13:29.178Z,100021.44
2023-04-13T11:18:32.735Z,100024.97
2023-04-13T11:23:35.898Z,100032.38
2023-04-13T11:28:43.244Z,100025.41
2023-04-13T11:33:49.910Z,100054.31
2023-04-13T11:38:54.273Z,100055.03
2023-04-13T11:43:58.316Z,100051.09
2023-04-13T11:49:01.650Z,100057.97
2023-04-13T11:54:05.004Z,100049.97
2023-04-13T11:59:09.991Z,100068.44
2023-04-13T12:04:16.465Z,100070.63
2023-04-13T12:09:22.132Z,100071.06
2023-04-13T12:19:34.815Z,100070.78
2023-04-13T12:24:39.967Z,100085.22
2023-04-13T12:29:44.086Z,100077.09
2023-04-13T12:34:47.228Z,100076.13
2023-04-13T12:39:49.758Z,100079.97
2023-04-13T12:44:55.012Z,100088.88
2023-04-13T12:49:57.598Z,100095.34
2023-04-13T12:55:00.340Z,100086.69
2023-04-13T13:00:10.480Z,100100.19
2023-04-13T13:05:13.034Z,100119.22
2023-04-13T13:15:26.016Z,100123.84
2023-04-13T13:20:28.968Z,100126.22
2023-04-13T13:25:32.587Z,100119.94
2023-04-13T13:30:38.061Z,100142.19
2023-04-13T13:35:41.584Z,100142.47
2023-04-13T13:40:44.159Z,100151.59
2023-04-13T13:45:48.668Z,100157.47
2023-04-13T13:50:51.880Z,100141.94
2023-04-13T13:55:56.178Z,100150.41
2023-04-13T14:01:00.360Z,100154.41
2023-04-13T14:06:03.187Z,100149.69
2023-04-13T14:11:05.956Z,100147.28
2023-04-13T14:16:10.060Z,100148.06
2023-04-13T14:21:12.763Z,100169.19
2023-04-13T14:26:15.742Z,100171.63
2023-04-13T14:31:19.700Z,100181.69
2023-04-13T14:36:22.333Z,100168.19
2023-04-13T14:41:24.894Z,100173.41
2023-04-13T14:46:29.212Z,100180.50
2023-04-13T14:51:32.090Z,100174.81
2023-04-13T14:56:34.754Z,100180.44
2023-04-13T15:01:38.685Z,100176.38
2023-04-13T15:06:41.248Z,100183.53
2023-04-13T15:11:45.229Z,100191.00
2023-04-13T15:16:49.483Z,100194.00
2023-04-13T15:21:52.243Z,100190.56
2023-04-13T15:26:55.407Z,100202.44
2023-04-13T15:31:59.976Z,100179.06
2023-04-13T15:37:02.561Z,100197.94
2023-04-13T15:42:05.408Z,100209.88
2023-04-13T15:47:09.530Z,100206.78
2023-04-13T15:52:12.089Z,100212.69
2023-04-13T15:57:15.137Z,100216.31
2023-04-13T16:02:19.103Z,100229.50
2023-04-13T16:07:21.806Z,100219.25
2023-04-13T16:12:26.559Z,100228.94
2023-04-13T16:17:34.251Z,100230.06
2023-04-13T16:22:37.822Z,100234.41
2023-04-13T16:27:40.702Z,100237.75
2023-04-13T16:32:46.204Z,100237.47
2023-04-13T16:37:49.369Z,100245.28
2023-04-13T16:42:52.140Z,100246.56
2023-04-13T16:47:56.406Z,100242.50
2023-04-13T16:52:59.031Z,100257.66
2023-04-13T16:58:02.205Z,100264.53
2023-04-13T17:03:06.203Z,100266.91
2023-04-13T17:08:09.715Z,100269.56
2023-04-13T17:13:12.367Z,100279.75
2023-04-13T17:18:16.334Z,100286.63
2023-04-13T17:23:18.893Z,100300.34
2023-04-13T17:28:23.400Z,100297.41
2023-04-13T17:33:28.524Z,100318.38
2023-04-13T17:38:31.076Z,100324.50
2023-04-13T17:43:34.047Z,100328.34
2023-04-13T17:48:38.346Z,100331.13
2023-04-13T17:53:40.970Z,100336.41
2023-04-13T17:58:43.610Z,100340.44
2023-04-13T18:03:48.355Z,100341.53
2023-04-13T18:08:51.145Z,100354.66
2023-04-13T18:13:53.854Z,100354.50
2023-04-13T18:18:57.964Z,100365.03
2023-04-13T18:24:01.923Z,100373.31
2023-04-13T18:29:04.983Z,100373.34
2023-04-13T18:34:12.593Z,100377.56
2023-04-13T18:39:15.260Z,100385.09
2023-04-13T18:44:17.950Z,100391.94
2023-04-13T18:49:22.014Z,100397.06
2023-04-13T18:54:24.609Z,100397.06
2023-04-13T18:59:28.054Z,100406.84
2023-04-13T19:04:32.032Z,100419.13
2023-04-13T19:09:35.211Z,100423.69
2023-04-13T19:14:37.756Z,100419.53
2023-04-13T19:19:41.971Z,100428.69
2023-04-13T19:24:45.703Z,100445.38
2023-04-13T19:29:49.258Z,100456.31
2023-04-13T19:34:54.149Z,100471.50
2023-04-13T19:39:57.690Z,100457.03
2023-04-13T19:45:01.200Z,100476.16
2023-04-13T19:50:07.240Z,100477.47
2023-04-13T19:55:12.143Z,100486.53
2023-04-13T20:00:20.723Z,100403.66
2023-04-13T20:05:26.080Z,100484.22
2023-04-13T20:10:31.851Z,100482.34
2023-04-13T20:15:35.387Z,100490.28
2023-04-13T20:20:42.583Z,100476.38
2023-04-13T20:25:46.162Z,100497.31
2023-04-13T20:30:49.686Z,100512.75
2023-04-13T20:35:55.527Z,100513.34
2023-04-13T20:40:59.409Z,100513.66
2023-04-13T20:46:03.199Z,100524.66
2023-04-13T20:51:08.348Z,100534.31
2023-04-13T20:56:12.095Z,100534.00
2023-04-13T21:01:15.899Z,100541.63
2023-04-13T21:06:22.969Z,100530.63
2023-04-13T21:11:26.367Z,100542.91
2023-04-13T21:16:30.401Z,100536.66
2023-04-13T21:21:37.117Z,100543.50
2023-04-13T21:26:40.318Z,100543.28
2023-04-13T21:31:43.708Z,100554.69
2023-04-13T21:41:54.547Z,100549.13
2023-04-13T21:46:57.181Z,100444.66
2023-04-13T21:52:01.071Z,100551.13
2023-04-13T21:57:05.104Z,100551.97
2023-04-13T22:02:07.817Z,100549.25
2023-04-13T22:07:12.216Z,100566.06
2023-04-13T22:12:16.207Z,100564.22
2023-04-13T22:17:18.742Z,100566.72
2023-04-13T22:22:22.982Z,100574.44
2023-04-13T22:27:26.130Z,100575.56
2023-04-13T22:32:28.972Z,100577.69
2023-04-13T22:37:35.263Z,100584.66
2023-04-13T22:42:37.844Z,100584.75
2023-04-13T22:47:40.434Z,100590.59
2023-04-13T22:52:44.319Z,100592.22
2023-04-13T22:57:47.197Z,100600.34
2023-04-13T23:02:50.404Z,100594.41
2023-04-13T23:07:54.789Z,100590.28
2023-04-13T23:12:57.751Z,100592.56
2023-04-13T23:18:02.302Z,100586.09
2023-04-13T23:23:06.447Z,100589.50
2023-04-13T23:28:08.981Z,100591.81
2023-04-13T23:33:11.641Z,100600.94
2023-04-13T23:38:15.500Z,100596.06
2023-04-13T23:43:18.037Z,100600.91
2023-04-13T23:48:21.743Z,100595.13
2023-04-13T23:53:25.773Z,100592.28
2023-04-13T23:58:28.305Z,100594.03
